• Join FlightAware (Why Join?)
  • Login
  • US Flag 
Gobble Gobble! 
06:10AM EST


 

Airport Tracker/Info


-or-


 

Live Flight TrackerFlight Track Log ✈ N498QS ✈ 14-Apr-2013 ✈ TXKF / BDA - KHPN

Flight Track Log - Related Links

Times and Time Zones

All times are in EDT time to prevent confusion due to time zone crossing. See the N498QS flight status page for this flight to view local times or setup timezone preferences in your user account.

Time Position Orientation Groundspeed Altitude Reporting Facility
EDT Latitude Longitude Course Direction KTS MPH feet Rate Location/Type
09:08AM 32.3667 -64.6833 307° West 267 307 2,500  Level New York Oceanic (ODAPS)
09:10AM 33.4088 -66.3580 306° West  Level FlightAware Approximate
09:10AM 32.3667 -64.6833 307° West 267 307 10,000  Level New York Oceanic (ODAPS)
09:11AM 33.4738 -66.4665 306° West  Level FlightAware Approximate
09:12AM 33.5387 -66.5751 306° West  Level FlightAware Approximate
09:12AM 32.5667 -65.0000 307° West 436 502 14,000  Level New York Oceanic (ODAPS)
09:13AM 33.6035 -66.6839 306° West  Level FlightAware Approximate
09:14AM 33.6682 -66.7928 306° West  Level FlightAware Approximate
09:15AM 32.7740 -65.3317 307° West 267 307 2,500  Level FlightAware Transoceanic
09:16AM 32.7740 -65.3317 307° West 267 307 10,000 3,720 Climbing FlightAware Transoceanic
09:17AM 32.8429 -65.4426 306° West 267 307 10,000 12,540 Level FlightAware Transoceanic
09:17AM 32.5667 -65.0000 307° West 436 502 27,000 3,960 Climbing New York Oceanic (ODAPS)
09:18AM 32.9992 -65.6954 306° West 436 502 14,000 -7,920 Descending FlightAware Transoceanic
09:19AM 33.0709 -65.8119 306° West 436 502 14,000  Level FlightAware Transoceanic
09:20AM 33.1425 -65.9287 306° West 436 502 14,000  Level FlightAware Transoceanic
09:21AM 33.2140 -66.0456 306° West 436 502 14,000  Level FlightAware Transoceanic
09:22AM 33.2854 -66.1627 306° West 436 502 14,000 17,100 Level FlightAware Transoceanic
09:22AM 32.5667 -65.0000 307° West 436 502 36,000 12,960 Climbing New York Oceanic (ODAPS)
09:23AM 33.3567 -66.2800 306° West 436 502 27,000 1,920 Descending FlightAware Transoceanic
09:23AM 32.5667 -65.0000 307° West 399 459 38,000  Climbing New York Oceanic (ODAPS)
09:24AM 33.4278 -66.3976 306° West 436 502 27,000 -6,540 Descending FlightAware Transoceanic
09:25AM 33.4989 -66.5153 306° West 436 502 27,000  Level FlightAware Transoceanic
09:26AM 33.5699 -66.6331 306° West 436 502 27,000 9,480 Level FlightAware Transoceanic
09:26AM 32.5667 -65.0000 307° West 399 459 43,000  Climbing New York Oceanic (ODAPS)
09:27AM 33.6407 -66.7512 306° West 436 502 27,000 -5,340 Descending FlightAware Transoceanic
09:28AM 33.7114 -66.8695 306° West 436 502 36,000 5,460 Climbing FlightAware Transoceanic
09:29AM 33.6819 -66.8202 306° West 399 459 38,000 960 Climbing FlightAware Transoceanic
09:30AM 33.7467 -66.9287 306° West 399 459 38,000  Level FlightAware Transoceanic
09:31AM 33.8114 -67.0374 306° West 399 459 38,000 2,460 Level FlightAware Transoceanic
09:32AM 33.8760 -67.1463 306° West 399 459 43,000 2,460 Climbing FlightAware Transoceanic
09:33AM 33.9405 -67.2553 305° West 399 459 43,000  Level FlightAware Transoceanic
09:34AM 34.0048 -67.3645 305° West 399 459 43,000  Level FlightAware Transoceanic
09:35AM 34.0691 -67.4738 305° West 399 459 43,000  Level FlightAware Transoceanic
09:36AM 34.1333 -67.5833 323° Northwest 399 459 43,000  Level FlightAware Transoceanic
09:37AM 34.2288 -67.6690 323° Northwest 399 459 43,000  Level FlightAware Transoceanic
09:38AM 34.3242 -67.7548 323° Northwest 399 459 43,000  Level FlightAware Transoceanic
09:38AM 34.1333 -67.5833 323° Northwest 380 437 43,000  Level New York Oceanic (ODAPS)
09:39AM 34.4196 -67.8409 323° Northwest 399 459 43,000  Level FlightAware Transoceanic
09:40AM 34.5149 -67.9271 323° Northwest 399 459 43,000  Level FlightAware Transoceanic
09:41AM 34.6101 -68.0135 323° Northwest 399 459 43,000  Level FlightAware Transoceanic
09:42AM 34.7053 -68.1001 323° Northwest 399 459 43,000  Level FlightAware Transoceanic
09:43AM 34.8005 -68.1870 323° Northwest 399 459 43,000  Level FlightAware Transoceanic
09:44AM 34.8399 -68.2230 323° Northwest 380 437 43,000  Level FlightAware Transoceanic
09:45AM 34.9280 -68.3037 323° Northwest 380 437 43,000  Level FlightAware Transoceanic
09:46AM 35.0160 -68.3846 323° Northwest 380 437 43,000  Level FlightAware Transoceanic
09:47AM 35.1040 -68.4657 323° Northwest 380 437 43,000  Level FlightAware Transoceanic
09:48AM 35.1919 -68.5470 323° Northwest 380 437 43,000  Level FlightAware Transoceanic
09:49AM 35.2798 -68.6284 323° Northwest 380 437 43,000  Level FlightAware Transoceanic
09:50AM 35.3676 -68.7100 323° Northwest 380 437 43,000  Level FlightAware Transoceanic
09:51AM 35.4553 -68.7918 323° Northwest 380 437 43,000  Level FlightAware Transoceanic
09:52AM 35.5430 -68.8737 323° Northwest 380 437 43,000  Level FlightAware Transoceanic
09:53AM 35.6307 -68.9559 323° Northwest 380 437 43,000  Level FlightAware Transoceanic
09:54AM 35.7183 -69.0382 323° Northwest 380 437 43,000  Level FlightAware Transoceanic
09:55AM 35.8058 -69.1207 323° Northwest 380 437 43,000  Level FlightAware Transoceanic
09:56AM 35.8933 -69.2034 323° Northwest 380 437 43,000  Level FlightAware Transoceanic
09:57AM 35.9807 -69.2862 322° Northwest 380 437 43,000  Level FlightAware Transoceanic
09:58AM 36.0680 -69.3693 322° Northwest 380 437 43,000  Level FlightAware Transoceanic
09:59AM 36.1553 -69.4525 322° Northwest 380 437 43,000  Level FlightAware Transoceanic
10:00AM 36.2426 -69.5359 322° Northwest 380 437 43,000  Level FlightAware Transoceanic
10:01AM 36.3298 -69.6196 322° Northwest 380 437 43,000  Level FlightAware Transoceanic
10:01AM 36.1667 -69.4500 322° Northwest 418 481 43,000  Level New York Oceanic (ODAPS)
10:02AM 36.4169 -69.7033 322° Northwest 380 437 43,000  Level FlightAware Transoceanic
10:03AM 36.5040 -69.7873 322° Northwest 380 437 43,000  Level FlightAware Transoceanic
10:04AM 36.5910 -69.8715 322° Northwest 380 437 43,000  Level FlightAware Transoceanic
10:05AM 36.6780 -69.9559 322° Northwest 380 437 43,000  Level FlightAware Transoceanic
10:06AM 36.7649 -70.0404 322° Northwest 380 437 43,000  Level FlightAware Transoceanic
10:07AM 36.8985 -70.1638 322° Northwest 418 481 43,000  Level FlightAware Transoceanic
10:08AM 36.9897 -70.2540 322° Northwest 418 481 43,000  Level FlightAware Transoceanic
10:09AM 37.0808 -70.3444 322° Northwest 418 481 43,000  Level FlightAware Transoceanic
10:10AM 37.1719 -70.4350 322° Northwest 418 481 43,000  Level FlightAware Transoceanic
10:11AM 37.2628 -70.5258 321° Northwest 418 481 43,000  Level FlightAware Transoceanic
10:12AM 37.3537 -70.6169 321° Northwest 418 481 43,000  Level FlightAware Transoceanic
10:13AM 37.4446 -70.7082 321° Northwest 418 481 43,000  Level FlightAware Transoceanic
10:14AM 37.5354 -70.7997 321° Northwest 418 481 43,000  Level FlightAware Transoceanic
10:15AM 37.6260 -70.8914 321° Northwest 418 481 43,000  Level FlightAware Transoceanic
10:16AM 37.7167 -70.9833 330° Northwest 418 481 43,000  Level FlightAware Transoceanic
10:17AM 37.8182 -71.0582 330° Northwest 418 481 43,000  Level FlightAware Transoceanic
10:18AM 37.9196 -71.1332 330° Northwest 418 481 43,000  Level FlightAware Transoceanic
10:18AM 37.7978 -71.0589 330° Northwest 462 532 43,000  Level New York Center
10:19AM 38.0210 -71.2084 330° Northwest 418 481 43,000  Level FlightAware Transoceanic
10:19AM 37.9017 -71.1250 333° Northwest 440 506 43,000  Level New York Center
10:20AM 38.0100 -71.1914 334° Northwest 426 490 43,000  Level New York Center
10:21AM 38.1244 -71.2503 338° Northwest 426 490 43,000  Level New York Center
10:22AM 38.2411 -71.2933 344° North 432 497 43,000  Level New York Center
10:23AM 38.3553 -71.3525 338° Northwest 432 497 43,000  Level New York Center
10:24AM 38.4697 -71.4119 338° Northwest 432 497 43,000 -60 Level New York Center
10:25AM 38.5861 -71.4714 338° Northwest 437 503 42,900 -720 Descending New York Center
10:26AM 38.7006 -71.5258 340° North 437 503 41,600 -1,380 Descending New York Center
10:27AM 38.8128 -71.5750 341° North 432 497 40,200 -1,380 Descending New York Center
10:28AM 38.9186 -71.6297 338° Northwest 422 486 38,800 -1,380 Descending New York Center
10:29AM 39.0247 -71.6792 340° North 410 472 37,500 -1,380 Descending New York Center
10:30AM 39.1286 -71.7314 339° North 405 466 36,100 -1,380 Descending New York Center
10:31AM 39.2303 -71.7811 339° North 400 460 34,800 -1,320 Descending New York Center
10:32AM 39.3361 -71.8389 337° Northwest 400 460 33,400 -1,620 Descending New York Center
10:33AM 39.4419 -71.8892 340° North 400 460 31,700 -1,860 Descending New York Center
10:34AM 39.5497 -71.9447 338° Northwest 407 468 29,800 -2,640 Descending New York Center
10:36AM 39.7742 -72.0567 339° North 413 475 23,300 -2,760 Descending Boston Center
10:37AM 39.8703 -72.1050 339° North 390 449 21,000 -2,280 Descending Boston Center
10:38AM 39.9597 -72.1506 339° North 365 420 18,800 -2,100 Descending Boston Center
10:39AM 40.0517 -72.1933 340° North 354 407 16,900 -1,980 Descending Boston Center
10:40AM 40.1350 -72.2364 338° Northwest 340 391 14,900 -1,920 Descending Boston Center
10:41AM 40.2206 -72.2825 338° Northwest 330 380 13,100 -960 Descending Boston Center
10:42AM 40.3061 -72.3258 339° North 330 380 13,000 -60 Descending Boston Center
10:43AM 40.3956 -72.3719 339° North 330 380 13,000 -180 Level Boston Center
10:44AM 40.4811 -72.4156 339° North 330 380 12,700 -720 Descending Boston Center
10:46AM 40.6167 -72.4833 339° North 319 367 11,200 -1,020 Descending New York TRACON
10:47AM 40.7000 -72.5167 343° North 274 315 10,200 -1,020 Descending New York TRACON
10:48AM 40.7667 -72.5667 330° Northwest 254 292 9,200 -1,020 Descending New York TRACON
10:49AM 40.8333 -72.6000 339° North 257 296 8,200 -1,080 Descending New York TRACON
10:49AM 40.9000 -72.6333 339° North 267 307 7,200 -600 Descending New York TRACON
10:51AM 40.9667 -72.6667 339° North 267 307 7,000 -600 Descending New York TRACON
10:52AM 41.0167 -72.7333 315° West 241 277 6,000 -720 Descending New York TRACON
10:52AM 41.0333 -72.8000 288° West 240 276 5,700 -540 Descending New York TRACON
10:54AM 41.0667 -72.8833 298° West 243 280 5,000 -360 Descending New York TRACON
10:54AM 41.1000 -72.9667 298° West 244 281 5,000  Level New York TRACON
10:55AM 41.1333 -73.0333 304° West 239 275 5,000  Level New York TRACON
10:57AM 41.1667 -73.1333 294° West 240 276 5,000 -240 Level New York TRACON
10:58AM 41.1667 -73.2167 270° West 238 274 4,600 -480 Descending New York TRACON
10:59AM 41.1167 -73.2833 225° Southwest 246 283 4,100 -300 Descending New York TRACON
11:00AM 41.0833 -73.3500 236° Southwest 252 290 4,000 -300 Descending New York TRACON
11:02AM 41.0000 -73.5000 234° Southwest 240 276 3,200 -420 Descending New York TRACON